Terminal Aerodrome Forecast
Issued by NWS

Home | Current Version | Previous Version | Text Only | Print | Product List | Glossary On
Versions: 1 2 3 4 5 6 7 8 9 10 11 12 13 14 15 16 17 18 19 20
795
FTUS43 KICT 290835 AAB
TAFCNU
TAF AMD
KCNU 290835Z 2909/3006 09011KT P6SM -SHRA VCTS SCT015 OVC035CB
      TEMPO 2909/2913 3SM +SHRA OVC015
     FM291300 14015G23KT 6SM BR OVC015
     FM291600 14015G24KT P6SM VCTS OVC015CB
     FM292000 16014KT 6SM -SHRA VCTS OVC035CB=

USA.gov is the U.S. government's official web portal to all federal, state and local government web resources and services.